sensor_id;sensor_type;location;lat;lon;timestamp;temperature;humidity
8591;DHT22;4333;48.322;14.340;2023-04-02T00:11:45;8.50;99.90
8591;DHT22;4333;48.322;14.340;2023-04-02T00:14:28;8.50;99.90
8591;DHT22;4333;48.322;14.340;2023-04-02T00:16:57;8.50;99.90
8591;DHT22;4333;48.322;14.340;2023-04-02T00:22:24;8.50;99.90
8591;DHT22;4333;48.322;14.340;2023-04-02T00:24:52;8.40;99.90
8591;DHT22;4333;48.322;14.340;2023-04-02T00:27:19;8.40;99.90
8591;DHT22;4333;48.322;14.340;2023-04-02T00:29:55;8.40;99.90
8591;DHT22;4333;48.322;14.340;2023-04-02T00:32:25;8.30;99.90
8591;DHT22;4333;48.322;14.340;2023-04-02T00:34:52;8.30;99.90
8591;DHT22;4333;48.322;14.340;2023-04-02T00:37:20;8.20;99.90
8591;DHT22;4333;48.322;14.340;2023-04-02T00:40:19;8.20;99.90
8591;DHT22;4333;48.322;14.340;2023-04-02T00:42:42;8.20;99.90
8591;DHT22;4333;48.322;14.340;2023-04-02T00:45:30;8.20;99.90
8591;DHT22;4333;48.322;14.340;2023-04-02T00:47:58;8.30;99.90
8591;DHT22;4333;48.322;14.340;2023-04-02T00:50:37;8.20;99.90
8591;DHT22;4333;48.322;14.340;2023-04-02T00:53:11;8.20;99.90
8591;DHT22;4333;48.322;14.340;2023-04-02T00:55:39;8.20;99.90
8591;DHT22;4333;48.322;14.340;2023-04-02T00:58:32;8.20;99.90
8591;DHT22;4333;48.322;14.340;2023-04-02T01:01:00;8.20;99.90
8591;DHT22;4333;48.322;14.340;2023-04-02T01:03:33;8.20;99.90
8591;DHT22;4333;48.322;14.340;2023-04-02T01:06:15;8.10;99.90
8591;DHT22;4333;48.322;14.340;2023-04-02T01:23:31;8.20;99.90
8591;DHT22;4333;48.322;14.340;2023-04-02T01:29:20;8.20;99.90
8591;DHT22;4333;48.322;14.340;2023-04-02T01:31:48;8.20;99.90
8591;DHT22;4333;48.322;14.340;2023-04-02T01:34:19;8.20;99.90
8591;DHT22;4333;48.322;14.340;2023-04-02T01:45:09;8.20;99.90
8591;DHT22;4333;48.322;14.340;2023-04-02T01:47:38;8.20;99.90
8591;DHT22;4333;48.322;14.340;2023-04-02T01:52:45;8.20;99.90
8591;DHT22;4333;48.322;14.340;2023-04-02T01:55:12;8.20;99.90
8591;DHT22;4333;48.322;14.340;2023-04-02T01:57:43;8.20;99.90
8591;DHT22;4333;48.322;14.340;2023-04-02T02:00:13;8.20;99.90
8591;DHT22;4333;48.322;14.340;2023-04-02T02:02:45;8.10;99.90
8591;DHT22;4333;48.322;14.340;2023-04-02T02:05:14;8.20;99.90
8591;DHT22;4333;48.322;14.340;2023-04-02T02:07:40;8.20;99.90
8591;DHT22;4333;48.322;14.340;2023-04-02T02:10:12;8.30;99.90
8591;DHT22;4333;48.322;14.340;2023-04-02T02:12:42;8.20;99.90
8591;DHT22;4333;48.322;14.340;2023-04-02T02:15:20;8.30;99.90
8591;DHT22;4333;48.322;14.340;2023-04-02T02:17:48;8.30;99.90
8591;DHT22;4333;48.322;14.340;2023-04-02T02:20:15;8.30;99.90
8591;DHT22;4333;48.322;14.340;2023-04-02T02:22:49;8.30;99.90
8591;DHT22;4333;48.322;14.340;2023-04-02T02:25:24;8.30;99.90
8591;DHT22;4333;48.322;14.340;2023-04-02T02:35:32;8.30;99.90
8591;DHT22;4333;48.322;14.340;2023-04-02T02:40:45;8.30;99.90
8591;DHT22;4333;48.322;14.340;2023-04-02T02:43:13;8.30;99.90
8591;DHT22;4333;48.322;14.340;2023-04-02T02:45:45;8.30;99.90
8591;DHT22;4333;48.322;14.340;2023-04-02T02:48:18;8.30;99.90
8591;DHT22;4333;48.322;14.340;2023-04-02T02:50:44;8.30;99.90
8591;DHT22;4333;48.322;14.340;2023-04-02T02:53:23;8.30;99.90
8591;DHT22;4333;48.322;14.340;2023-04-02T02:55:54;8.40;99.90
8591;DHT22;4333;48.322;14.340;2023-04-02T02:58:25;8.40;99.90
8591;DHT22;4333;48.322;14.340;2023-04-02T03:00:52;8.30;99.90
8591;DHT22;4333;48.322;14.340;2023-04-02T03:03:29;8.30;99.90
8591;DHT22;4333;48.322;14.340;2023-04-02T03:06:05;8.30;99.90
8591;DHT22;4333;48.322;14.340;2023-04-02T03:08:40;8.40;99.90
8591;DHT22;4333;48.322;14.340;2023-04-02T03:13:52;8.40;99.90
8591;DHT22;4333;48.322;14.340;2023-04-02T03:16:37;8.40;99.90
8591;DHT22;4333;48.322;14.340;2023-04-02T03:19:34;8.40;99.90
8591;DHT22;4333;48.322;14.340;2023-04-02T03:22:13;8.30;99.90
8591;DHT22;4333;48.322;14.340;2023-04-02T03:27:50;8.30;99.90
8591;DHT22;4333;48.322;14.340;2023-04-02T03:30:29;8.20;99.90
8591;DHT22;4333;48.322;14.340;2023-04-02T03:33:02;8.30;99.90
8591;DHT22;4333;48.322;14.340;2023-04-02T03:38:18;8.30;99.90
8591;DHT22;4333;48.322;14.340;2023-04-02T03:41:05;8.30;99.90
8591;DHT22;4333;48.322;14.340;2023-04-02T03:43:44;8.30;99.90
8591;DHT22;4333;48.322;14.340;2023-04-02T03:48:45;8.30;99.90
8591;DHT22;4333;48.322;14.340;2023-04-02T03:51:21;8.30;99.90
8591;DHT22;4333;48.322;14.340;2023-04-02T03:53:49;8.40;99.90
8591;DHT22;4333;48.322;14.340;2023-04-02T03:56:28;8.40;99.90
8591;DHT22;4333;48.322;14.340;2023-04-02T03:59:12;8.40;99.90
8591;DHT22;4333;48.322;14.340;2023-04-02T04:02:06;8.40;99.90
8591;DHT22;4333;48.322;14.340;2023-04-02T04:04:39;8.40;99.90
8591;DHT22;4333;48.322;14.340;2023-04-02T04:07:15;8.40;99.90
8591;DHT22;4333;48.322;14.340;2023-04-02T04:09:44;8.40;99.90
8591;DHT22;4333;48.322;14.340;2023-04-02T04:12:32;8.50;99.90
8591;DHT22;4333;48.322;14.340;2023-04-02T04:15:30;8.40;99.90
8591;DHT22;4333;48.322;14.340;2023-04-02T04:18:25;8.40;99.90
8591;DHT22;4333;48.322;14.340;2023-04-02T04:21:05;8.40;99.90
8591;DHT22;4333;48.322;14.340;2023-04-02T04:23:37;8.40;99.90
8591;DHT22;4333;48.322;14.340;2023-04-02T04:26:19;8.50;99.90
8591;DHT22;4333;48.322;14.340;2023-04-02T04:31:30;8.50;99.90
8591;DHT22;4333;48.322;14.340;2023-04-02T04:34:10;8.50;99.90
8591;DHT22;4333;48.322;14.340;2023-04-02T04:36:52;8.40;99.90
8591;DHT22;4333;48.322;14.340;2023-04-02T04:41:55;8.40;99.90
8591;DHT22;4333;48.322;14.340;2023-04-02T04:44:25;8.40;99.90
8591;DHT22;4333;48.322;14.340;2023-04-02T04:47:02;8.40;99.90
8591;DHT22;4333;48.322;14.340;2023-04-02T04:49:38;8.50;99.90
8591;DHT22;4333;48.322;14.340;2023-04-02T04:54:39;8.50;99.90
8591;DHT22;4333;48.322;14.340;2023-04-02T04:57:05;8.50;99.90
8591;DHT22;4333;48.322;14.340;2023-04-02T04:59:44;8.50;99.90
8591;DHT22;4333;48.322;14.340;2023-04-02T05:02:23;8.50;99.90
8591;DHT22;4333;48.322;14.340;2023-04-02T05:04:53;8.50;99.90
8591;DHT22;4333;48.322;14.340;2023-04-02T05:07:31;8.50;99.90
8591;DHT22;4333;48.322;14.340;2023-04-02T05:12:42;8.50;99.90
8591;DHT22;4333;48.322;14.340;2023-04-02T05:17:50;8.50;99.90
8591;DHT22;4333;48.322;14.340;2023-04-02T05:20:28;8.50;99.90
8591;DHT22;4333;48.322;14.340;2023-04-02T05:23:25;8.50;99.90
8591;DHT22;4333;48.322;14.340;2023-04-02T05:31:03;8.40;99.90
8591;DHT22;4333;48.322;14.340;2023-04-02T05:33:31;8.40;99.90
8591;DHT22;4333;48.322;14.340;2023-04-02T05:36:04;8.40;99.90
8591;DHT22;4333;48.322;14.340;2023-04-02T05:38:39;8.40;99.90
8591;DHT22;4333;48.322;14.340;2023-04-02T05:44:13;8.50;99.90
8591;DHT22;4333;48.322;14.340;2023-04-02T05:52:20;8.50;99.90
8591;DHT22;4333;48.322;14.340;2023-04-02T05:57:53;8.50;99.90
8591;DHT22;4333;48.322;14.340;2023-04-02T06:00:52;8.40;99.90
8591;DHT22;4333;48.322;14.340;2023-04-02T06:14:36;8.60;99.90
8591;DHT22;4333;48.322;14.340;2023-04-02T06:17:01;8.70;99.90
8591;DHT22;4333;48.322;14.340;2023-04-02T06:19:35;8.80;99.90
8591;DHT22;4333;48.322;14.340;2023-04-02T06:22:54;8.70;99.90
8591;DHT22;4333;48.322;14.340;2023-04-02T06:25:04;8.60;99.90
8591;DHT22;4333;48.322;14.340;2023-04-02T06:27:33;8.70;99.90
8591;DHT22;4333;48.322;14.340;2023-04-02T06:30:02;8.70;99.90
8591;DHT22;4333;48.322;14.340;2023-04-02T06:32:47;8.80;99.90
8591;DHT22;4333;48.322;14.340;2023-04-02T06:35:14;8.80;99.90
8591;DHT22;4333;48.322;14.340;2023-04-02T06:37:44;8.70;99.90
8591;DHT22;4333;48.322;14.340;2023-04-02T06:42:48;8.70;99.90
8591;DHT22;4333;48.322;14.340;2023-04-02T06:45:25;8.60;99.90
8591;DHT22;4333;48.322;14.340;2023-04-02T06:47:57;8.60;99.90
8591;DHT22;4333;48.322;14.340;2023-04-02T06:50:29;8.60;99.90
8591;DHT22;4333;48.322;14.340;2023-04-02T06:53:04;8.60;99.90
8591;DHT22;4333;48.322;14.340;2023-04-02T06:55:37;8.60;99.90
8591;DHT22;4333;48.322;14.340;2023-04-02T06:58:10;8.60;99.90
8591;DHT22;4333;48.322;14.340;2023-04-02T07:00:40;8.70;99.90
8591;DHT22;4333;48.322;14.340;2023-04-02T07:03:13;8.60;99.90
8591;DHT22;4333;48.322;14.340;2023-04-02T07:05:39;8.60;99.90
8591;DHT22;4333;48.322;14.340;2023-04-02T07:08:05;8.60;99.90
8591;DHT22;4333;48.322;14.340;2023-04-02T07:10:33;8.60;99.90
8591;DHT22;4333;48.322;14.340;2023-04-02T07:13:00;8.50;99.90
8591;DHT22;4333;48.322;14.340;2023-04-02T07:15:27;8.60;99.90
8591;DHT22;4333;48.322;14.340;2023-04-02T07:17:53;8.60;99.90
8591;DHT22;4333;48.322;14.340;2023-04-02T07:20:33;8.60;99.90
8591;DHT22;4333;48.322;14.340;2023-04-02T07:23:02;8.60;99.90
8591;DHT22;4333;48.322;14.340;2023-04-02T07:25:28;8.60;99.90
8591;DHT22;4333;48.322;14.340;2023-04-02T07:27:54;8.60;99.90
8591;DHT22;4333;48.322;14.340;2023-04-02T07:30:20;8.60;99.90
8591;DHT22;4333;48.322;14.340;2023-04-02T07:32:46;8.50;99.90
8591;DHT22;4333;48.322;14.340;2023-04-02T07:35:15;8.50;99.90
8591;DHT22;4333;48.322;14.340;2023-04-02T07:37:40;8.50;99.90
8591;DHT22;4333;48.322;14.340;2023-04-02T07:40:17;8.60;99.90
8591;DHT22;4333;48.322;14.340;2023-04-02T07:42:43;8.50;99.90
8591;DHT22;4333;48.322;14.340;2023-04-02T07:45:10;8.50;99.90
8591;DHT22;4333;48.322;14.340;2023-04-02T07:47:38;8.40;99.90
8591;DHT22;4333;48.322;14.340;2023-04-02T07:50:06;8.40;99.90
8591;DHT22;4333;48.322;14.340;2023-04-02T07:52:41;8.40;99.90
8591;DHT22;4333;48.322;14.340;2023-04-02T07:55:10;8.40;99.90
8591;DHT22;4333;48.322;14.340;2023-04-02T07:57:38;8.50;99.90
8591;DHT22;4333;48.322;14.340;2023-04-02T08:00:08;8.40;99.90
8591;DHT22;4333;48.322;14.340;2023-04-02T08:02:34;8.40;99.90
8591;DHT22;4333;48.322;14.340;2023-04-02T08:05:02;8.50;99.90
8591;DHT22;4333;48.322;14.340;2023-04-02T08:07:28;8.60;99.90
8591;DHT22;4333;48.322;14.340;2023-04-02T08:09:54;8.60;99.90
8591;DHT22;4333;48.322;14.340;2023-04-02T08:12:20;8.60;99.90
8591;DHT22;4333;48.322;14.340;2023-04-02T08:14:46;8.60;99.90
8591;DHT22;4333;48.322;14.340;2023-04-02T08:17:11;8.60;99.90
8591;DHT22;4333;48.322;14.340;2023-04-02T08:19:37;8.60;99.90
8591;DHT22;4333;48.322;14.340;2023-04-02T08:22:04;8.70;99.90
8591;DHT22;4333;48.322;14.340;2023-04-02T08:24:31;8.80;99.90
8591;DHT22;4333;48.322;14.340;2023-04-02T08:26:56;8.80;99.90
8591;DHT22;4333;48.322;14.340;2023-04-02T08:29:23;8.90;99.90
8591;DHT22;4333;48.322;14.340;2023-04-02T08:31:49;9.00;99.90
8591;DHT22;4333;48.322;14.340;2023-04-02T08:34:15;9.00;99.90
8591;DHT22;4333;48.322;14.340;2023-04-02T08:36:43;8.90;99.90
8591;DHT22;4333;48.322;14.340;2023-04-02T08:39:09;9.00;99.90
8591;DHT22;4333;48.322;14.340;2023-04-02T08:41:44;8.90;99.90
8591;DHT22;4333;48.322;14.340;2023-04-02T08:47:02;9.20;99.90
8591;DHT22;4333;48.322;14.340;2023-04-02T08:52:02;9.30;99.90
8591;DHT22;4333;48.322;14.340;2023-04-02T08:54:33;9.10;99.90
8591;DHT22;4333;48.322;14.340;2023-04-02T08:57:55;9.10;99.90
8591;DHT22;4333;48.322;14.340;2023-04-02T09:00:34;9.00;99.90
8591;DHT22;4333;48.322;14.340;2023-04-02T09:03:23;8.90;99.90
8591;DHT22;4333;48.322;14.340;2023-04-02T09:05:52;8.90;99.90
8591;DHT22;4333;48.322;14.340;2023-04-02T09:08:20;8.90;99.90
8591;DHT22;4333;48.322;14.340;2023-04-02T09:13:30;8.80;99.90
8591;DHT22;4333;48.322;14.340;2023-04-02T09:16:07;8.80;99.90
8591;DHT22;4333;48.322;14.340;2023-04-02T09:18:35;8.80;99.90
8591;DHT22;4333;48.322;14.340;2023-04-02T09:23:59;8.90;99.90
8591;DHT22;4333;48.322;14.340;2023-04-02T09:26:31;8.80;99.90
8591;DHT22;4333;48.322;14.340;2023-04-02T09:35:11;8.70;99.90
8591;DHT22;4333;48.322;14.340;2023-04-02T09:37:38;8.70;99.90
8591;DHT22;4333;48.322;14.340;2023-04-02T09:40:50;8.80;99.90
8591;DHT22;4333;48.322;14.340;2023-04-02T09:43:19;8.70;99.90
8591;DHT22;4333;48.322;14.340;2023-04-02T09:51:14;8.70;99.90
8591;DHT22;4333;48.322;14.340;2023-04-02T09:56:16;8.70;99.90
8591;DHT22;4333;48.322;14.340;2023-04-02T09:58:44;8.70;99.90
8591;DHT22;4333;48.322;14.340;2023-04-02T10:01:37;8.70;99.90
8591;DHT22;4333;48.322;14.340;2023-04-02T10:04:05;8.80;99.90
8591;DHT22;4333;48.322;14.340;2023-04-02T10:06:32;8.70;99.90
8591;DHT22;4333;48.322;14.340;2023-04-02T10:09:19;8.70;99.90
8591;DHT22;4333;48.322;14.340;2023-04-02T10:11:46;8.80;99.90
8591;DHT22;4333;48.322;14.340;2023-04-02T10:14:17;8.70;99.90
8591;DHT22;4333;48.322;14.340;2023-04-02T10:16:51;8.70;99.90
8591;DHT22;4333;48.322;14.340;2023-04-02T10:19:39;8.80;99.90
8591;DHT22;4333;48.322;14.340;2023-04-02T10:22:14;8.80;99.90
8591;DHT22;4333;48.322;14.340;2023-04-02T10:24:41;8.80;99.90
8591;DHT22;4333;48.322;14.340;2023-04-02T10:41:10;9.10;99.90
8591;DHT22;4333;48.322;14.340;2023-04-02T10:49:22;9.30;99.90
8591;DHT22;4333;48.322;14.340;2023-04-02T10:54:55;9.00;99.90
8591;DHT22;4333;48.322;14.340;2023-04-02T10:57:35;9.20;99.90
8591;DHT22;4333;48.322;14.340;2023-04-02T11:05:48;9.20;99.90
8591;DHT22;4333;48.322;14.340;2023-04-02T11:11:13;9.40;99.90
8591;DHT22;4333;48.322;14.340;2023-04-02T11:14:07;9.60;99.90
8591;DHT22;4333;48.322;14.340;2023-04-02T11:16:35;9.50;99.90
8591;DHT22;4333;48.322;14.340;2023-04-02T11:29:40;9.60;99.90
8591;DHT22;4333;48.322;14.340;2023-04-02T11:37:53;9.50;99.90
8591;DHT22;4333;48.322;14.340;2023-04-02T11:40:45;9.50;99.90
8591;DHT22;4333;48.322;14.340;2023-04-02T11:48:43;9.60;99.90
8591;DHT22;4333;48.322;14.340;2023-04-02T11:53:56;9.60;99.90
8591;DHT22;4333;48.322;14.340;2023-04-02T11:56:46;9.70;99.90
8591;DHT22;4333;48.322;14.340;2023-04-02T12:09:42;9.40;99.90
8591;DHT22;4333;48.322;14.340;2023-04-02T12:12:37;9.40;99.90
8591;DHT22;4333;48.322;14.340;2023-04-02T12:15:33;9.40;99.90
8591;DHT22;4333;48.322;14.340;2023-04-02T12:18:22;9.40;99.90
8591;DHT22;4333;48.322;14.340;2023-04-02T12:20:52;9.40;99.90
8591;DHT22;4333;48.322;14.340;2023-04-02T12:23:21;9.40;99.90
8591;DHT22;4333;48.322;14.340;2023-04-02T12:25:56;9.40;99.90
8591;DHT22;4333;48.322;14.340;2023-04-02T12:28:25;9.40;99.90
8591;DHT22;4333;48.322;14.340;2023-04-02T12:33:35;9.40;99.90
8591;DHT22;4333;48.322;14.340;2023-04-02T12:36:04;9.40;99.90
8591;DHT22;4333;48.322;14.340;2023-04-02T12:38:34;9.50;99.90
8591;DHT22;4333;48.322;14.340;2023-04-02T12:41:04;9.60;99.90
8591;DHT22;4333;48.322;14.340;2023-04-02T12:43:34;9.60;99.90
8591;DHT22;4333;48.322;14.340;2023-04-02T12:46:04;9.80;99.90
8591;DHT22;4333;48.322;14.340;2023-04-02T12:48:31;9.90;99.90
8591;DHT22;4333;48.322;14.340;2023-04-02T12:50:58;10.00;99.90
8591;DHT22;4333;48.322;14.340;2023-04-02T12:55:56;10.10;99.90
8591;DHT22;4333;48.322;14.340;2023-04-02T12:58:35;10.30;99.90
8591;DHT22;4333;48.322;14.340;2023-04-02T13:01:19;10.40;99.90
8591;DHT22;4333;48.322;14.340;2023-04-02T13:04:08;10.40;99.90
8591;DHT22;4333;48.322;14.340;2023-04-02T13:06:38;10.20;99.90
8591;DHT22;4333;48.322;14.340;2023-04-02T13:09:25;10.20;99.90
8591;DHT22;4333;48.322;14.340;2023-04-02T13:11:55;10.10;99.90
8591;DHT22;4333;48.322;14.340;2023-04-02T13:14:23;10.10;99.90
8591;DHT22;4333;48.322;14.340;2023-04-02T13:16:49;10.10;99.90
8591;DHT22;4333;48.322;14.340;2023-04-02T13:19:29;10.00;99.90
8591;DHT22;4333;48.322;14.340;2023-04-02T13:22:01;9.90;99.90
8591;DHT22;4333;48.322;14.340;2023-04-02T13:24:29;9.80;99.90
8591;DHT22;4333;48.322;14.340;2023-04-02T13:27:01;9.60;99.90
8591;DHT22;4333;48.322;14.340;2023-04-02T13:29:28;9.60;99.90
8591;DHT22;4333;48.322;14.340;2023-04-02T13:31:57;9.60;99.90
8591;DHT22;4333;48.322;14.340;2023-04-02T13:34:24;9.50;99.90
8591;DHT22;4333;48.322;14.340;2023-04-02T13:36:50;9.30;99.90
8591;DHT22;4333;48.322;14.340;2023-04-02T13:39:16;9.20;99.90
8591;DHT22;4333;48.322;14.340;2023-04-02T13:41:54;9.20;99.90
8591;DHT22;4333;48.322;14.340;2023-04-02T13:44:28;9.20;99.90
8591;DHT22;4333;48.322;14.340;2023-04-02T13:46:55;9.20;99.90
8591;DHT22;4333;48.322;14.340;2023-04-02T13:49:24;9.10;99.90
8591;DHT22;4333;48.322;14.340;2023-04-02T13:51:52;9.20;99.90
8591;DHT22;4333;48.322;14.340;2023-04-02T13:54:31;9.20;99.90
8591;DHT22;4333;48.322;14.340;2023-04-02T13:56:59;9.20;99.90
8591;DHT22;4333;48.322;14.340;2023-04-02T13:59:26;9.10;99.90
8591;DHT22;4333;48.322;14.340;2023-04-02T14:01:55;9.20;99.90
8591;DHT22;4333;48.322;14.340;2023-04-02T14:04:25;9.20;99.90
8591;DHT22;4333;48.322;14.340;2023-04-02T14:10:03;8.90;99.90
8591;DHT22;4333;48.322;14.340;2023-04-02T14:15:24;9.00;99.90
8591;DHT22;4333;48.322;14.340;2023-04-02T14:18:18;9.00;99.90
8591;DHT22;4333;48.322;14.340;2023-04-02T14:29:21;8.90;99.90
8591;DHT22;4333;48.322;14.340;2023-04-02T14:32:06;8.70;99.90
8591;DHT22;4333;48.322;14.340;2023-04-02T14:43:23;8.20;99.90
8591;DHT22;4333;48.322;14.340;2023-04-02T14:48:47;8.20;99.90
8591;DHT22;4333;48.322;14.340;2023-04-02T14:54:11;7.90;99.90
8591;DHT22;4333;48.322;14.340;2023-04-02T14:56:44;7.90;99.90
8591;DHT22;4333;48.322;14.340;2023-04-02T14:59:34;7.90;99.90
8591;DHT22;4333;48.322;14.340;2023-04-02T15:07:42;8.20;99.90
8591;DHT22;4333;48.322;14.340;2023-04-02T15:10:34;8.30;99.90
8591;DHT22;4333;48.322;14.340;2023-04-02T15:13:07;8.30;99.90
8591;DHT22;4333;48.322;14.340;2023-04-02T15:15:46;8.10;99.90
8591;DHT22;4333;48.322;14.340;2023-04-02T15:18:16;8.00;99.90
8591;DHT22;4333;48.322;14.340;2023-04-02T15:31:46;7.80;99.90
8591;DHT22;4333;48.322;14.340;2023-04-02T15:37:16;7.80;99.90
8591;DHT22;4333;48.322;14.340;2023-04-02T15:39:54;7.60;99.90
8591;DHT22;4333;48.322;14.340;2023-04-02T15:42:27;7.60;99.90
8591;DHT22;4333;48.322;14.340;2023-04-02T15:48:15;7.50;99.90
8591;DHT22;4333;48.322;14.340;2023-04-02T15:50:57;7.50;99.90
8591;DHT22;4333;48.322;14.340;2023-04-02T15:56:06;7.50;99.90
8591;DHT22;4333;48.322;14.340;2023-04-02T16:04:14;7.40;99.90
8591;DHT22;4333;48.322;14.340;2023-04-02T16:12:36;7.10;99.90
8591;DHT22;4333;48.322;14.340;2023-04-02T16:15:36;7.00;99.90
8591;DHT22;4333;48.322;14.340;2023-04-02T16:18:26;6.90;99.90
8591;DHT22;4333;48.322;14.340;2023-04-02T16:21:00;6.90;99.90
8591;DHT22;4333;48.322;14.340;2023-04-02T16:23:38;6.80;99.90
8591;DHT22;4333;48.322;14.340;2023-04-02T16:32:08;6.80;99.90
8591;DHT22;4333;48.322;14.340;2023-04-02T16:34:42;6.80;99.90
8591;DHT22;4333;48.322;14.340;2023-04-02T16:46:19;6.50;97.60
8591;DHT22;4333;48.322;14.340;2023-04-02T16:54:41;6.40;96.30
8591;DHT22;4333;48.322;14.340;2023-04-02T16:57:30;6.40;99.90
8591;DHT22;4333;48.322;14.340;2023-04-02T17:00:28;6.40;99.90
8591;DHT22;4333;48.322;14.340;2023-04-02T17:06:00;6.30;99.90
8591;DHT22;4333;48.322;14.340;2023-04-02T17:11:19;6.30;96.70
8591;DHT22;4333;48.322;14.340;2023-04-02T17:14:03;6.30;98.20
8591;DHT22;4333;48.322;14.340;2023-04-02T17:16:39;6.30;98.10
8591;DHT22;4333;48.322;14.340;2023-04-02T17:19:11;6.30;97.40
8591;DHT22;4333;48.322;14.340;2023-04-02T17:21:42;6.20;97.20
8591;DHT22;4333;48.322;14.340;2023-04-02T17:26:39;6.10;95.50
8591;DHT22;4333;48.322;14.340;2023-04-02T17:29:14;6.10;96.10
8591;DHT22;4333;48.322;14.340;2023-04-02T17:31:44;6.00;94.50
8591;DHT22;4333;48.322;14.340;2023-04-02T17:34:12;6.00;91.90
8591;DHT22;4333;48.322;14.340;2023-04-02T17:39:25;5.80;90.20
8591;DHT22;4333;48.322;14.340;2023-04-02T17:45:01;5.80;92.50
8591;DHT22;4333;48.322;14.340;2023-04-02T17:53:17;5.60;90.10
8591;DHT22;4333;48.322;14.340;2023-04-02T17:58:50;5.50;87.20
8591;DHT22;4333;48.322;14.340;2023-04-02T18:07:20;5.40;84.90
8591;DHT22;4333;48.322;14.340;2023-04-02T18:12:35;5.40;80.10
8591;DHT22;4333;48.322;14.340;2023-04-02T18:15:37;5.40;78.00
8591;DHT22;4333;48.322;14.340;2023-04-02T18:27:04;5.30;67.50
8591;DHT22;4333;48.322;14.340;2023-04-02T18:29:47;5.30;66.30
8591;DHT22;4333;48.322;14.340;2023-04-02T18:35:15;5.20;65.90
8591;DHT22;4333;48.322;14.340;2023-04-02T18:46:21;5.20;66.30
8591;DHT22;4333;48.322;14.340;2023-04-02T18:49:01;5.20;63.70
8591;DHT22;4333;48.322;14.340;2023-04-02T18:51:32;5.30;64.80
8591;DHT22;4333;48.322;14.340;2023-04-02T18:54:33;5.20;66.70
8591;DHT22;4333;48.322;14.340;2023-04-02T18:57:07;5.20;65.60
8591;DHT22;4333;48.322;14.340;2023-04-02T19:00:02;5.20;65.00
8591;DHT22;4333;48.322;14.340;2023-04-02T19:05:38;5.20;63.00
8591;DHT22;4333;48.322;14.340;2023-04-02T19:10:58;5.10;59.20
8591;DHT22;4333;48.322;14.340;2023-04-02T19:13:25;5.10;58.60
8591;DHT22;4333;48.322;14.340;2023-04-02T19:19:13;5.20;59.00
8591;DHT22;4333;48.322;14.340;2023-04-02T19:24:38;5.20;58.10
8591;DHT22;4333;48.322;14.340;2023-04-02T19:27:22;5.20;62.90
8591;DHT22;4333;48.322;14.340;2023-04-02T19:32:51;5.10;61.60
8591;DHT22;4333;48.322;14.340;2023-04-02T19:35:26;5.00;66.40
8591;DHT22;4333;48.322;14.340;2023-04-02T19:43:34;5.00;58.40
8591;DHT22;4333;48.322;14.340;2023-04-02T19:46:00;5.10;56.20
8591;DHT22;4333;48.322;14.340;2023-04-02T19:48:36;5.10;57.20
8591;DHT22;4333;48.322;14.340;2023-04-02T19:51:08;5.10;58.70
8591;DHT22;4333;48.322;14.340;2023-04-02T19:53:33;5.10;58.20
8591;DHT22;4333;48.322;14.340;2023-04-02T19:56:00;5.10;59.40
8591;DHT22;4333;48.322;14.340;2023-04-02T19:58:32;5.00;63.20
8591;DHT22;4333;48.322;14.340;2023-04-02T20:00:58;5.00;64.20
8591;DHT22;4333;48.322;14.340;2023-04-02T20:03:27;5.00;61.80
8591;DHT22;4333;48.322;14.340;2023-04-02T20:05:53;5.00;63.50
8591;DHT22;4333;48.322;14.340;2023-04-02T20:08:19;5.00;64.20
8591;DHT22;4333;48.322;14.340;2023-04-02T20:10:46;5.00;61.30
8591;DHT22;4333;48.322;14.340;2023-04-02T20:13:14;5.00;60.80
8591;DHT22;4333;48.322;14.340;2023-04-02T20:15:40;5.00;63.10
8591;DHT22;4333;48.322;14.340;2023-04-02T20:18:06;5.00;61.90
8591;DHT22;4333;48.322;14.340;2023-04-02T20:20:34;5.00;61.30
8591;DHT22;4333;48.322;14.340;2023-04-02T20:23:05;5.00;64.20
8591;DHT22;4333;48.322;14.340;2023-04-02T20:25:31;5.00;62.70
8591;DHT22;4333;48.322;14.340;2023-04-02T20:27:57;5.00;62.30
8591;DHT22;4333;48.322;14.340;2023-04-02T20:30:30;5.00;61.30
8591;DHT22;4333;48.322;14.340;2023-04-02T20:32:59;5.00;62.70
8591;DHT22;4333;48.322;14.340;2023-04-02T20:35:25;5.00;63.40
8591;DHT22;4333;48.322;14.340;2023-04-02T20:37:51;4.90;65.10
8591;DHT22;4333;48.322;14.340;2023-04-02T20:40:17;4.90;65.20
8591;DHT22;4333;48.322;14.340;2023-04-02T20:42:48;4.90;63.30
8591;DHT22;4333;48.322;14.340;2023-04-02T20:45:17;4.90;64.30
8591;DHT22;4333;48.322;14.340;2023-04-02T20:47:45;4.90;65.90
8591;DHT22;4333;48.322;14.340;2023-04-02T20:50:13;4.90;62.60
8591;DHT22;4333;48.322;14.340;2023-04-02T20:52:41;4.90;63.50
8591;DHT22;4333;48.322;14.340;2023-04-02T20:55:07;4.90;63.80
8591;DHT22;4333;48.322;14.340;2023-04-02T20:57:33;4.90;65.30
8591;DHT22;4333;48.322;14.340;2023-04-02T21:00:01;4.90;65.50
8591;DHT22;4333;48.322;14.340;2023-04-02T21:02:31;4.90;67.40
8591;DHT22;4333;48.322;14.340;2023-04-02T21:04:56;4.90;67.60
8591;DHT22;4333;48.322;14.340;2023-04-02T21:07:22;4.90;69.00
8591;DHT22;4333;48.322;14.340;2023-04-02T21:09:48;4.90;70.20
8591;DHT22;4333;48.322;14.340;2023-04-02T21:12:13;4.80;70.90
8591;DHT22;4333;48.322;14.340;2023-04-02T21:14:41;4.80;72.40
8591;DHT22;4333;48.322;14.340;2023-04-02T21:17:07;4.80;71.60
8591;DHT22;4333;48.322;14.340;2023-04-02T21:19:37;4.80;71.60
8591;DHT22;4333;48.322;14.340;2023-04-02T21:22:03;4.80;72.60
8591;DHT22;4333;48.322;14.340;2023-04-02T21:24:31;4.80;74.90
8591;DHT22;4333;48.322;14.340;2023-04-02T21:26:57;4.80;76.90
8591;DHT22;4333;48.322;14.340;2023-04-02T21:29:22;4.80;78.00
8591;DHT22;4333;48.322;14.340;2023-04-02T21:31:49;4.80;76.50
8591;DHT22;4333;48.322;14.340;2023-04-02T21:34:15;4.80;73.80
8591;DHT22;4333;48.322;14.340;2023-04-02T21:36:46;4.70;77.20
8591;DHT22;4333;48.322;14.340;2023-04-02T21:39:22;4.70;78.00
8591;DHT22;4333;48.322;14.340;2023-04-02T21:41:53;4.70;76.40
8591;DHT22;4333;48.322;14.340;2023-04-02T21:44:20;4.70;75.60
8591;DHT22;4333;48.322;14.340;2023-04-02T21:46:49;4.70;78.80
8591;DHT22;4333;48.322;14.340;2023-04-02T21:49:18;4.70;77.80
8591;DHT22;4333;48.322;14.340;2023-04-02T21:51:45;4.70;78.80
8591;DHT22;4333;48.322;14.340;2023-04-02T21:54:11;4.70;78.80
8591;DHT22;4333;48.322;14.340;2023-04-02T21:56:39;4.60;79.10
8591;DHT22;4333;48.322;14.340;2023-04-02T21:59:07;4.70;83.40
8591;DHT22;4333;48.322;14.340;2023-04-02T22:01:36;4.70;82.90
8591;DHT22;4333;48.322;14.340;2023-04-02T22:04:04;4.70;82.00
8591;DHT22;4333;48.322;14.340;2023-04-02T22:06:37;4.60;80.10
8591;DHT22;4333;48.322;14.340;2023-04-02T22:09:11;4.70;78.10
8591;DHT22;4333;48.322;14.340;2023-04-02T22:11:42;4.60;78.10
8591;DHT22;4333;48.322;14.340;2023-04-02T22:14:08;4.60;77.90
8591;DHT22;4333;48.322;14.340;2023-04-02T22:16:35;4.70;77.40
8591;DHT22;4333;48.322;14.340;2023-04-02T22:19:02;4.70;76.60
8591;DHT22;4333;48.322;14.340;2023-04-02T22:21:31;4.60;74.90
8591;DHT22;4333;48.322;14.340;2023-04-02T22:24:06;4.60;75.10
8591;DHT22;4333;48.322;14.340;2023-04-02T22:26:34;4.60;71.00
8591;DHT22;4333;48.322;14.340;2023-04-02T22:29:01;4.70;71.60
8591;DHT22;4333;48.322;14.340;2023-04-02T22:31:28;4.70;70.90
8591;DHT22;4333;48.322;14.340;2023-04-02T22:33:58;4.60;69.90
8591;DHT22;4333;48.322;14.340;2023-04-02T22:36:27;4.60;68.70
8591;DHT22;4333;48.322;14.340;2023-04-02T22:38:53;4.70;70.90
8591;DHT22;4333;48.322;14.340;2023-04-02T22:41:31;4.70;66.20